Time;durP1;ratioP1;P1;durP2;ratioP2;P2;SDS_P1;SDS_P2;PMS_P1;PMS_P2;Temp;Humidity;BMP_temperature;BMP_pressure;BME280_temperature;BME280_humidity;BME280_pressure;Samples;Min_cycle;Max_cycle;Signal;HPM_P1;HPM_P2
2024/03/19 00:01:16;;;;;;;12.88;8.20;;;;;;;11.12;76.22;99614.78;5088577;28;20027;-79
2024/03/19 00:03:42;;;;;;;12.32;7.45;;;;;;;11.21;76.99;99621.38;5088179;28;20039;-79
2024/03/19 00:06:07;;;;;;;10.50;7.38;;;;;;;11.15;76.60;99595.63;5087954;28;20450;-79
2024/03/19 00:08:33;;;;;;;13.98;7.22;;;;;;;11.29;77.02;99619.41;5088389;28;20045;-79
2024/03/19 00:10:58;;;;;;;10.95;7.50;;;;;;;11.49;75.92;99595.81;5069874;28;20035;-78
2024/03/19 00:13:24;;;;;;;11.27;7.47;;;;;;;11.20;77.51;99577.06;5088053;28;20032;-79
2024/03/19 00:15:51;;;;;;;14.25;7.50;;;;;;;11.37;76.74;99571.00;5069690;28;20032;-79
2024/03/19 00:18:17;;;;;;;10.65;7.38;;;;;;;11.46;75.84;99562.41;5088017;28;20085;-79
2024/03/19 00:20:43;;;;;;;11.77;8.07;;;;;;;11.46;76.64;99561.56;5088001;28;20077;-80
2024/03/19 00:23:08;;;;;;;10.82;7.78;;;;;;;11.56;76.52;99572.44;5087849;28;20032;-79
2024/03/19 00:25:35;;;;;;;10.70;8.05;;;;;;;11.14;77.44;99543.31;5088266;28;20081;-79
2024/03/19 00:28:01;;;;;;;14.45;7.75;;;;;;;10.99;80.00;99545.66;5087481;28;20051;-79
2024/03/19 00:30:26;;;;;;;12.77;8.20;;;;;;;11.45;78.10;99567.97;5069749;28;20059;-79
2024/03/19 00:32:51;;;;;;;15.13;8.73;;;;;;;11.48;76.10;99532.75;5087603;28;20124;-79
2024/03/19 00:35:18;;;;;;;14.40;8.98;;;;;;;11.77;76.26;99572.81;5087505;28;20110;-79
2024/03/19 00:37:43;;;;;;;13.75;10.30;;;;;;;11.55;76.88;99537.97;5069497;28;20539;-79
2024/03/19 00:40:12;;;;;;;13.00;9.93;;;;;;;11.65;76.82;99549.66;5069452;28;20805;-80
2024/03/19 00:42:39;;;;;;;15.38;10.40;;;;;;;11.61;76.48;99547.72;5079326;28;20032;-79
2024/03/19 00:45:04;;;;;;;16.90;10.07;;;;;;;11.62;76.83;99546.66;5087409;28;20028;-79
2024/03/19 00:47:30;;;;;;;14.23;9.32;;;;;;;11.59;76.79;99539.94;5087682;28;20038;-79
2024/03/19 00:49:55;;;;;;;15.02;9.82;;;;;;;11.63;76.10;99541.06;5087383;28;20039;-79
2024/03/19 00:52:21;;;;;;;13.63;10.27;;;;;;;11.27;77.55;99523.56;5068938;28;20036;-79
2024/03/19 00:54:47;;;;;;;13.02;9.82;;;;;;;11.06;78.75;99531.13;5087350;28;20043;-79
2024/03/19 00:57:12;;;;;;;12.52;9.20;;;;;;;11.24;78.91;99550.72;5087218;28;20110;-80
2024/03/19 00:59:38;;;;;;;11.90;8.70;;;;;;;11.05;78.38;99510.03;5086846;28;20031;-79
2024/03/19 01:02:06;;;;;;;11.90;9.10;;;;;;;11.42;77.11;99544.38;5087328;28;20486;-79
2024/03/19 01:04:32;;;;;;;;;;;;;;;11.56;76.87;99561.75;5087543;28;20028;-79
2024/03/19 01:06:57;;;;;;;12.32;8.45;;;;;;;11.43;77.21;99562.84;5087327;28;19912;-78
2024/03/19 01:09:22;;;;;;;12.45;8.43;;;;;;;10.72;79.88;99566.66;5068794;28;20106;-79
2024/03/19 01:11:48;;;;;;;13.75;8.57;;;;;;;10.01;84.09;99551.38;5087267;28;20507;-79
2024/03/19 01:14:13;;;;;;;13.70;8.60;;;;;;;10.27;84.25;99566.13;5086975;28;20042;-79
2024/03/19 01:16:39;;;;;;;11.00;7.55;;;;;;;10.41;81.94;99549.97;5087321;28;20043;-80
2024/03/19 01:19:04;;;;;;;12.32;7.18;;;;;;;10.35;81.84;99543.69;5087105;28;20516;-79
2024/03/19 01:21:30;;;;;;;10.57;7.15;;;;;;;10.33;83.19;99551.09;5087047;28;20024;-78
2024/03/19 01:23:57;;;;;;;10.55;7.22;;;;;;;10.32;82.51;99568.16;5068939;28;20046;-79
2024/03/19 01:26:23;;;;;;;11.05;7.38;;;;;;;10.04;83.75;99560.75;5087063;28;20028;-78
2024/03/19 01:28:48;;;;;;;10.70;7.28;;;;;;;9.82;85.27;99571.09;5086202;28;20048;-79
2024/03/19 01:31:13;;;;;;;12.20;7.95;;;;;;;9.93;85.18;99575.66;5086970;28;20039;-79
2024/03/19 01:33:40;;;;;;;10.70;7.18;;;;;;;9.83;85.64;99559.41;5086387;28;20125;-79
2024/03/19 01:36:05;;;;;;;11.48;7.00;;;;;;;9.86;85.24;99558.94;5086970;28;20560;-79
2024/03/19 01:38:31;;;;;;;10.18;6.55;;;;;;;9.64;86.00;99550.63;5068811;28;20032;-79
2024/03/19 01:40:56;;;;;;;11.90;7.20;;;;;;;10.12;84.01;99572.94;5087097;28;20114;-79
2024/03/19 01:43:22;;;;;;;12.38;9.18;;;;;;;9.81;84.03;99556.16;5086203;28;20020;-78
2024/03/19 01:46:06;;;;;;;12.63;8.38;;;;;;;9.88;86.04;99562.19;5086664;28;20024;-79
2024/03/19 01:48:31;;;;;;;11.75;7.47;;;;;;;9.97;84.87;99563.50;5086115;28;20460;-79
2024/03/19 01:50:57;;;;;;;102.00;47.95;;;;;;;10.19;84.74;99560.31;5087383;28;20044;-79
2024/03/19 01:53:23;;;;;;;21.35;12.15;;;;;;;10.13;83.39;99535.38;5068204;28;20409;-79
2024/03/19 01:55:49;;;;;;;12.43;8.65;;;;;;;10.04;83.15;99524.25;5086323;28;20099;-79
2024/03/19 01:58:14;;;;;;;15.45;8.70;;;;;;;10.26;83.21;99558.38;5086587;28;20393;-79
2024/03/19 02:00:40;;;;;;;11.70;8.40;;;;;;;10.19;83.77;99566.44;5086355;28;20024;-79
2024/03/19 02:03:05;;;;;;;13.10;8.13;;;;;;;10.11;82.91;99534.00;5086225;28;20044;-78
2024/03/19 02:05:31;;;;;;;13.80;8.43;;;;;;;10.29;81.63;99547.22;5075881;28;20031;-78
2024/03/19 02:07:56;;;;;;;11.90;8.13;;;;;;;10.45;80.55;99543.94;5073800;28;20067;-79
2024/03/19 02:10:22;;;;;;;11.32;7.25;;;;;;;10.10;82.74;99553.69;5086019;28;20525;-80
2024/03/19 02:12:47;;;;;;;18.20;9.32;;;;;;;10.14;82.90;99549.53;5077825;28;20028;-79
2024/03/19 02:15:12;;;;;;;23.15;11.85;;;;;;;9.97;83.14;99550.19;5072536;28;20028;-80
2024/03/19 02:17:38;;;;;;;22.70;12.50;;;;;;;10.26;81.54;99558.38;5085747;28;20028;-80
2024/03/19 02:20:12;;;;;;;19.75;10.48;;;;;;;10.29;82.24;99549.91;5086445;28;20165;-80
2024/03/19 02:22:43;;;;;;;14.75;9.02;;;;;;;10.40;80.96;99548.31;5083654;28;20045;-80
2024/03/19 02:25:08;;;;;;;12.27;7.82;;;;;;;9.85;84.46;99552.00;5086215;28;20070;-79
2024/03/19 02:27:34;;;;;;;10.02;6.85;;;;;;;9.42;87.59;99537.03;5086260;28;20070;-80
2024/03/19 02:29:59;;;;;;;8.98;6.30;;;;;;;9.69;86.00;99549.97;5085702;28;20048;-79
2024/03/19 02:32:24;;;;;;;10.68;6.60;;;;;;;9.48;88.61;99536.13;5085934;28;20031;-79
2024/03/19 02:34:50;;;;;;;11.00;6.38;;;;;;;9.52;88.10;99526.66;5067987;28;20032;-79
2024/03/19 02:37:16;;;;;;;9.07;6.10;;;;;;;9.46;88.47;99514.25;5086060;28;20504;-79
2024/03/19 02:39:43;;;;;;;9.50;6.30;;;;;;;9.21;92.45;99531.13;5085704;28;20489;-80
2024/03/19 02:42:09;;;;;;;9.70;6.30;;;;;;;9.74;88.60;99547.44;5067665;28;20058;-80
2024/03/19 02:44:34;;;;;;;9.23;6.07;;;;;;;9.85;87.05;99560.00;5086393;28;20024;-80
2024/03/19 02:46:59;;;;;;;12.32;7.13;;;;;;;9.65;88.58;99584.22;5086324;28;20111;-80
2024/03/19 02:49:25;;;;;;;9.75;6.85;;;;;;;9.11;91.70;99522.81;5086067;28;20039;-79
2024/03/19 02:51:50;;;;;;;11.52;7.45;;;;;;;9.28;92.46;99551.53;5085929;28;20035;-80
2024/03/19 02:54:16;;;;;;;11.32;6.80;;;;;;;9.45;90.22;99534.69;5067655;28;20030;-80
2024/03/19 02:56:41;;;;;;;11.80;6.68;;;;;;;9.30;91.30;99544.94;5085906;28;20516;-79
2024/03/19 02:59:07;;;;;;;11.65;6.65;;;;;;;9.03;95.14;99555.88;5089361;28;20020;-79
2024/03/19 03:01:32;;;;;;;10.60;6.53;;;;;;;8.96;96.43;99538.38;5071547;28;20054;-79
2024/03/19 03:03:58;;;;;;;11.05;6.78;;;;;;;9.11;95.88;99520.16;5089200;28;20533;-79
2024/03/19 03:06:23;;;;;;;11.32;6.95;;;;;;;9.96;91.09;99588.50;5089390;28;20065;-79
2024/03/19 03:08:48;;;;;;;9.85;6.43;;;;;;;9.92;89.85;99584.69;5071460;28;20032;-79
2024/03/19 03:11:14;;;;;;;12.05;7.10;;;;;;;9.75;90.24;99551.75;5089424;28;20039;-79
2024/03/19 03:13:39;;;;;;;10.82;7.00;;;;;;;10.15;87.68;99562.63;5089313;28;20110;-79
2024/03/19 03:16:05;;;;;;;12.10;7.32;;;;;;;9.54;91.80;99551.19;5089073;28;20077;-79
2024/03/19 03:18:30;;;;;;;12.70;8.32;;;;;;;9.19;96.36;99535.88;5089642;28;20032;-80
2024/03/19 03:20:55;;;;;;;17.88;15.43;;;;;;;9.02;99.04;99542.78;5089208;28;20093;-79
2024/03/19 03:23:21;;;;;;;40.03;35.38;;;;;;;9.08;98.36;99551.75;5089262;28;20419;-79
2024/03/19 03:25:46;;;;;;;29.85;22.27;;;;;;;9.12;99.08;99566.22;5089133;28;20488;-79
2024/03/19 03:28:12;;;;;;;11.25;7.45;;;;;;;8.96;99.23;99554.31;5070585;28;20028;-79
2024/03/19 03:30:37;;;;;;;12.07;7.13;;;;;;;8.91;100.00;99539.03;5088765;28;20362;-79
2024/03/19 03:33:03;;;;;;;15.02;7.45;;;;;;;8.99;100.00;99553.84;5086866;28;20138;-79
2024/03/19 03:35:28;;;;;;;41.15;18.25;;;;;;;9.38;96.90;99562.47;5070720;28;20112;-78
2024/03/19 03:37:54;;;;;;;39.20;17.38;;;;;;;9.71;93.48;99575.34;5089256;28;20035;-79
2024/03/19 03:40:19;;;;;;;34.17;15.85;;;;;;;9.35;94.39;99526.44;5088728;28;20540;-78
2024/03/19 03:42:45;;;;;;;34.85;15.73;;;;;;;9.65;93.32;99547.75;5088350;28;20042;-79
2024/03/19 03:45:11;;;;;;;31.67;15.15;;;;;;;9.35;97.61;99562.88;5088443;28;20020;-79
2024/03/19 03:47:40;;;;;;;28.83;12.30;;;;;;;9.04;99.20;99546.84;5088818;28;20028;-79
2024/03/19 03:50:08;;;;;;;15.60;8.90;;;;;;;9.00;100.00;99548.31;5088121;28;20024;-80
2024/03/19 03:52:34;;;;;;;13.10;8.07;;;;;;;9.14;100.00;99567.63;5069949;28;20101;-79
2024/03/19 03:55:00;;;;;;;15.30;9.20;;;;;;;9.43;100.00;99559.91;5088505;28;20036;-78
2024/03/19 03:57:26;;;;;;;11.18;7.13;;;;;;;9.68;97.09;99556.34;5088558;28;20028;-79
2024/03/19 03:59:52;;;;;;;21.40;18.10;;;;;;;9.61;96.28;99573.22;5087939;28;20055;-80
2024/03/19 04:02:17;;;;;;;11.80;7.13;;;;;;;9.28;98.36;99578.94;5070205;28;20032;-79
2024/03/19 04:04:43;;;;;;;10.98;6.50;;;;;;;9.29;99.04;99558.44;5088442;28;20727;-80
2024/03/19 04:07:08;;;;;;;9.65;6.07;;;;;;;9.13;99.20;99549.22;5069649;28;20024;-79
2024/03/19 04:09:34;;;;;;;10.20;6.57;;;;;;;9.39;97.49;99566.72;5088337;28;20026;-78
2024/03/19 04:11:59;;;;;;;10.35;6.20;;;;;;;9.77;94.38;99560.31;5088170;28;20028;-79
2024/03/19 04:14:24;;;;;;;8.00;5.60;;;;;;;9.74;93.81;99555.44;5088436;28;20091;-79
2024/03/19 04:16:50;;;;;;;9.60;5.65;;;;;;;10.00;93.29;99583.56;5087967;28;20416;-79
2024/03/19 04:19:15;;;;;;;9.60;6.28;;;;;;;9.99;91.58;99542.78;5087851;28;20165;-79
2024/03/19 04:21:40;;;;;;;38.30;20.13;;;;;;;10.25;90.63;99570.06;5083811;28;20035;-79
2024/03/19 04:24:06;;;;;;;23.17;11.57;;;;;;;10.33;91.28;99575.09;5085572;28;20107;-79
2024/03/19 04:26:34;;;;;;;11.60;7.38;;;;;;;10.49;89.12;99562.13;5069705;28;20082;-79
2024/03/19 04:29:00;;;;;;;;;;;;;;;10.55;88.23;99587.88;5069851;28;20047;-79
2024/03/19 04:31:25;;;;;;;39.60;23.48;;;;;;;10.03;90.78;99575.94;5087840;28;19969;-79
2024/03/19 04:33:50;;;;;;;25.65;16.35;;;;;;;10.24;89.84;99571.09;5087489;28;20135;-80
2024/03/19 04:36:16;;;;;;;31.48;19.75;;;;;;;10.54;88.98;99586.25;5087520;28;20031;-78
2024/03/19 04:38:41;;;;;;;26.08;16.50;;;;;;;10.64;88.51;99597.16;5069334;28;20111;-79
2024/03/19 04:41:11;;;;;;;21.15;12.13;;;;;;;10.76;87.57;99600.63;5087461;28;20040;-79
2024/03/19 04:43:37;;;;;;;16.10;8.27;;;;;;;10.76;87.19;99589.16;5087556;28;20130;-80
2024/03/19 04:46:02;;;;;;;11.48;7.78;;;;;;;10.97;85.44;99614.44;5087433;28;20139;-79
2024/03/19 04:48:28;;;;;;;11.40;7.40;;;;;;;10.68;87.44;99605.50;5087473;28;20031;-81
2024/03/19 04:50:53;;;;;;;13.32;9.05;;;;;;;10.58;85.76;99571.41;5087669;28;20036;-79
2024/03/19 04:53:19;;;;;;;12.05;8.98;;;;;;;10.86;84.83;99595.53;5087261;28;20028;-79
2024/03/19 04:55:45;;;;;;;18.42;8.85;;;;;;;10.79;85.17;99610.84;5086962;28;20039;-80
2024/03/19 04:58:11;;;;;;;14.80;9.20;;;;;;;10.88;85.18;99603.31;5087563;28;20032;-80
2024/03/19 05:00:36;;;;;;;16.08;10.30;;;;;;;10.64;85.42;99570.47;5087162;28;20046;-80
2024/03/19 05:03:02;;;;;;;15.70;9.65;;;;;;;10.95;84.36;99597.84;5087209;28;20055;-80
2024/03/19 05:05:27;;;;;;;15.43;10.10;;;;;;;10.91;86.40;99618.88;5068768;28;20042;-80
2024/03/19 05:07:52;;;;;;;13.57;9.88;;;;;;;10.19;89.09;99568.31;5087511;28;20028;-80
2024/03/19 05:10:18;;;;;;;18.00;10.60;;;;;;;10.30;89.76;99586.22;5068858;28;20035;-80
2024/03/19 05:12:43;;;;;;;14.00;10.13;;;;;;;10.61;86.99;99571.75;5069352;28;20032;-79
2024/03/19 05:15:09;;;;;;;19.52;11.27;;;;;;;10.89;84.45;99572.94;5086924;28;20020;-79
2024/03/19 05:17:34;;;;;;;16.70;11.50;;;;;;;11.07;82.98;99579.97;5086548;28;20126;-80
2024/03/19 05:20:00;;;;;;;26.25;12.18;;;;;;;10.40;89.73;99594.47;5087579;28;20085;-80
2024/03/19 05:22:25;;;;;;;23.45;12.80;;;;;;;10.85;87.86;99633.94;5087274;28;20019;-79
2024/03/19 05:24:51;;;;;;;19.58;12.38;;;;;;;10.84;88.53;99623.50;5087171;28;20036;-79
2024/03/19 05:27:17;;;;;;;19.35;13.93;;;;;;;11.09;86.34;99641.94;5087191;28;20019;-79
2024/03/19 05:29:43;;;;;;;22.85;13.98;;;;;;;11.12;86.17;99630.00;5069055;28;20048;-78
2024/03/19 05:32:09;;;;;;;20.92;14.55;;;;;;;10.69;88.95;99634.63;5087326;28;20031;-79
2024/03/19 05:34:35;;;;;;;24.58;16.52;;;;;;;10.49;90.46;99605.59;5086809;28;20489;-79
2024/03/19 05:37:01;;;;;;;24.90;16.17;;;;;;;10.69;89.19;99604.47;5087154;28;20027;-79
2024/03/19 05:39:26;;;;;;;29.95;15.95;;;;;;;10.48;90.18;99598.63;5087271;28;20028;-79
2024/03/19 05:41:52;;;;;;;22.80;14.32;;;;;;;10.70;88.97;99600.75;5087231;28;20040;-79
2024/03/19 05:44:17;;;;;;;25.63;14.40;;;;;;;10.52;88.30;99585.66;5086856;28;20032;-79
2024/03/19 05:46:43;;;;;;;40.50;20.40;;;;;;;10.69;89.36;99618.63;5090822;28;20489;-80
2024/03/19 05:49:09;;;;;;;55.92;26.77;;;;;;;10.49;89.33;99584.28;5094604;28;20035;-79
2024/03/19 05:51:35;;;;;;;73.47;32.78;;;;;;;10.57;90.17;99604.47;5095239;28;20032;-80
2024/03/19 05:54:00;;;;;;;65.03;32.42;;;;;;;10.58;90.45;99614.06;5080921;28;20095;-79
2024/03/19 05:56:26;;;;;;;31.98;18.55;;;;;;;10.61;91.12;99605.63;5100654;28;20110;-79
2024/03/19 05:58:51;;;;;;;35.33;20.55;;;;;;;10.79;89.06;99616.19;5100185;28;20047;-79
2024/03/19 06:01:18;;;;;;;52.63;26.98;;;;;;;11.36;86.89;99631.59;5100492;28;21318;-79
2024/03/19 06:03:43;;;;;;;59.47;30.65;;;;;;;11.40;83.60;99630.09;5082499;28;20020;-79
2024/03/19 06:06:09;;;;;;;55.80;28.17;;;;;;;11.12;85.11;99616.66;5100820;28;20071;-79
2024/03/19 06:08:37;;;;;;;41.28;20.50;;;;;;;11.13;84.92;99631.59;5098330;28;20021;-79
2024/03/19 06:11:04;;;;;;;32.13;17.80;;;;;;;11.48;83.71;99620.06;5075953;28;20030;-78
2024/03/19 06:13:29;;;;;;;27.20;14.35;;;;;;;11.68;81.62;99622.34;5075396;28;20027;-79
2024/03/19 06:15:55;;;;;;;20.30;13.02;;;;;;;11.84;81.47;99642.97;5094000;28;20028;-79
2024/03/19 06:18:21;;;;;;;21.83;13.10;;;;;;;11.86;80.51;99614.16;5081689;28;20031;-79
2024/03/19 06:20:46;;;;;;;55.17;43.35;;;;;;;12.09;79.23;99623.16;5075796;28;20118;-78
2024/03/19 06:23:12;;;;;;;33.47;24.98;;;;;;;11.78;82.37;99631.38;5094056;28;20413;-79
2024/03/19 06:25:38;;;;;;;30.40;25.05;;;;;;;11.73;81.62;99609.06;5074976;28;20136;-79
2024/03/19 06:28:04;;;;;;;57.10;47.15;;;;;;;11.41;83.71;99633.56;5091878;28;20028;-77
2024/03/19 06:30:33;;;;;;;44.13;36.65;;;;;;;11.53;84.03;99631.69;5094613;28;20135;-77
2024/03/19 06:32:59;;;;;;;30.92;21.42;;;;;;;11.58;83.84;99617.59;5094288;28;20024;-79
2024/03/19 06:35:25;;;;;;;16.73;12.63;;;;;;;11.75;81.63;99623.84;5093744;28;20035;-80
2024/03/19 06:37:51;;;;;;;16.85;11.27;;;;;;;12.09;81.46;99649.88;5074129;28;20025;-79
2024/03/19 06:40:17;;;;;;;121.70;111.88;;;;;;;11.93;81.52;99652.28;5092320;28;20024;-79
2024/03/19 06:42:43;;;;;;;32.38;22.90;;;;;;;11.81;81.54;99606.03;5091169;28;20046;-78
2024/03/19 06:45:08;;;;;;;20.98;11.45;;;;;;;11.69;83.08;99627.47;5091132;28;20499;-79
2024/03/19 06:47:37;;;;;;;17.77;10.55;;;;;;;11.79;83.63;99646.38;5072681;28;20024;-79
2024/03/19 06:50:06;;;;;;;14.05;9.00;;;;;;;11.83;81.57;99641.38;5090397;28;20024;-79
2024/03/19 06:52:35;;;;;;;13.35;8.23;;;;;;;12.10;80.57;99624.78;5078266;28;20111;-80
2024/03/19 06:55:02;;;;;;;18.98;13.25;;;;;;;12.16;81.04;99634.53;5076629;28;20020;-80
2024/03/19 06:57:31;;;;;;;11.40;7.85;;;;;;;12.01;84.21;99657.25;5089382;28;20135;-80
2024/03/19 06:59:57;;;;;;;12.38;8.05;;;;;;;11.81;84.10;99644.25;5073514;28;20110;-80
2024/03/19 07:02:28;;;;;;;14.82;8.38;;;;;;;12.12;84.06;99647.56;5089611;28;20058;-80
2024/03/19 07:04:54;;;;;;;19.20;14.93;;;;;;;12.27;82.19;99658.50;5089160;28;20664;-79
2024/03/19 07:07:19;;;;;;;15.07;11.07;;;;;;;12.61;82.36;99660.44;5088751;28;20030;-80
2024/03/19 07:09:45;;;;;;;15.05;9.48;;;;;;;12.26;85.47;99658.78;5089088;28;20034;-80
2024/03/19 07:12:14;;;;;;;15.02;9.70;;;;;;;12.21;88.08;99653.31;5088835;28;20123;-80
2024/03/19 07:14:41;;;;;;;19.23;11.35;;;;;;;12.06;88.59;99657.34;5089328;28;20032;-80
2024/03/19 07:17:07;;;;;;;20.33;11.70;;;;;;;12.03;96.13;99679.19;5073627;28;20193;-80
2024/03/19 07:19:33;;;;;;;17.55;12.13;;;;;;;12.06;98.53;99673.38;5070397;28;20157;-81
2024/03/19 07:21:58;;;;;;;20.17;12.52;;;;;;;12.01;99.58;99653.75;5088459;28;20510;-81
2024/03/19 07:24:24;;;;;;;22.55;14.50;;;;;;;12.08;99.11;99678.47;5070420;28;20032;-80
2024/03/19 07:26:49;;;;;;;22.83;14.82;;;;;;;12.16;100.00;99663.94;5088200;28;20044;-80
2024/03/19 07:29:15;;;;;;;21.45;15.00;;;;;;;12.24;100.00;99653.66;5088441;28;20054;-80
2024/03/19 07:31:42;;;;;;;28.30;20.50;;;;;;;12.08;100.00;99648.28;5088424;28;20031;-79
2024/03/19 07:34:09;;;;;;;22.00;16.50;;;;;;;11.83;100.00;99663.53;5088740;28;20032;-80
2024/03/19 07:36:39;;;;;;;23.23;15.45;;;;;;;12.21;100.00;99669.34;5088628;28;20042;-80
2024/03/19 07:39:04;;;;;;;24.77;18.00;;;;;;;11.90;100.00;99658.09;5078246;28;20035;-80
2024/03/19 07:41:36;;;;;;;18.35;13.98;;;;;;;11.84;98.96;99664.34;5084342;28;20020;-80
2024/03/19 07:44:02;;;;;;;17.92;12.25;;;;;;;12.03;100.00;99684.56;5088716;28;20028;-80
2024/03/19 07:46:27;;;;;;;14.55;10.50;;;;;;;11.99;100.00;99666.53;5082566;28;20048;-80
2024/03/19 07:48:52;;;;;;;15.18;10.90;;;;;;;12.28;100.00;99675.38;5081788;28;20083;-80
2024/03/19 07:51:19;;;;;;;15.48;12.18;;;;;;;12.24;99.86;99650.19;5087683;28;20493;-80
2024/03/19 07:53:45;;;;;;;19.10;11.30;;;;;;;12.00;100.00;99674.31;5086785;28;20131;-80
2024/03/19 07:56:11;;;;;;;13.25;8.75;;;;;;;12.13;99.94;99693.78;5087345;28;20077;-80
2024/03/19 07:58:36;;;;;;;17.20;11.40;;;;;;;12.75;95.93;99691.19;5076948;28;20039;-79
2024/03/19 08:01:01;;;;;;;18.83;11.18;;;;;;;12.94;92.44;99704.31;5075645;28;20016;-79
2024/03/19 08:03:27;;;;;;;15.07;9.20;;;;;;;12.32;95.77;99676.53;5088230;28;20036;-79
2024/03/19 08:05:58;;;;;;;18.50;11.23;;;;;;;12.66;98.29;99692.63;5088033;28;20040;-79
2024/03/19 08:08:24;;;;;;;15.05;9.75;;;;;;;12.42;96.84;99676.72;5065701;28;20055;-80
2024/03/19 08:10:50;;;;;;;16.77;11.32;;;;;;;12.49;96.85;99673.06;5087297;28;20477;-79
2024/03/19 08:13:15;;;;;;;15.55;10.38;;;;;;;12.37;95.06;99684.63;5087723;28;20031;-80
2024/03/19 08:15:41;;;;;;;14.63;9.30;;;;;;;12.21;96.75;99698.75;5087757;28;20413;-80
2024/03/19 08:18:08;;;;;;;12.48;8.32;;;;;;;11.95;99.71;99666.22;5088125;28;20040;-79
2024/03/19 08:20:35;;;;;;;13.60;8.60;;;;;;;12.16;94.78;99672.75;5087762;28;20455;-80
2024/03/19 08:23:02;;;;;;;12.35;8.18;;;;;;;11.66;98.44;99687.50;5087630;28;20565;-79
2024/03/19 08:25:27;;;;;;;16.63;10.27;;;;;;;11.98;97.25;99680.97;5069583;28;20024;-79
2024/03/19 08:27:53;;;;;;;13.32;8.82;;;;;;;12.16;95.15;99656.72;5087928;28;20035;-79
2024/03/19 08:30:19;;;;;;;16.02;11.00;;;;;;;12.30;100.00;99693.84;5069840;28;20059;-79
2024/03/19 08:32:45;;;;;;;15.27;10.73;;;;;;;12.31;99.14;99679.44;5087737;28;20024;-80
2024/03/19 08:35:11;;;;;;;14.70;9.93;;;;;;;12.12;98.28;99710.91;5087548;28;20043;-79
2024/03/19 08:37:36;;;;;;;15.27;9.38;;;;;;;11.72;100.00;99671.59;5087338;28;20063;-79
2024/03/19 08:40:05;;;;;;;13.38;8.25;;;;;;;11.66;99.00;99663.44;5087843;28;20056;-79
2024/03/19 08:42:32;;;;;;;12.40;8.85;;;;;;;11.74;100.00;99691.66;5087259;28;20482;-79
2024/03/19 08:44:58;;;;;;;16.07;9.13;;;;;;;12.18;98.34;99692.03;5087523;28;20039;-79
2024/03/19 08:47:23;;;;;;;18.50;10.95;;;;;;;12.02;100.00;99677.56;5069268;28;20096;-79
2024/03/19 08:49:49;;;;;;;16.88;9.30;;;;;;;11.31;100.00;99660.03;5069344;28;21040;-79
2024/03/19 08:52:14;;;;;;;14.65;9.20;;;;;;;11.29;100.00;99678.16;5087245;28;20032;-79
2024/03/19 08:54:40;;;;;;;16.83;10.20;;;;;;;11.41;100.00;99693.09;5068692;28;20032;-80
2024/03/19 08:57:06;;;;;;;14.70;9.63;;;;;;;11.31;100.00;99686.72;5086570;28;20071;-79
2024/03/19 08:59:32;;;;;;;14.32;9.02;;;;;;;11.49;100.00;99693.81;5086909;28;20474;-79
2024/03/19 09:01:58;;;;;;;14.55;9.30;;;;;;;11.32;100.00;99675.00;5087343;28;20044;-80
2024/03/19 09:04:23;;;;;;;13.95;9.55;;;;;;;11.35;100.00;99678.00;5087214;28;20020;-79
2024/03/19 09:06:49;;;;;;;14.10;9.15;;;;;;;11.56;100.00;99705.16;5086772;28;20100;-79
2024/03/19 09:09:14;;;;;;;15.52;9.63;;;;;;;11.59;100.00;99697.50;5087177;28;20022;-79
2024/03/19 09:11:39;;;;;;;14.63;9.18;;;;;;;12.05;100.00;99711.00;5086924;28;20032;-79
2024/03/19 09:14:05;;;;;;;15.45;9.18;;;;;;;11.93;100.00;99699.53;5086867;28;20028;-80
2024/03/19 09:16:31;;;;;;;15.55;9.55;;;;;;;11.52;100.00;99688.78;5086650;28;20111;-79
2024/03/19 09:18:56;;;;;;;14.18;8.65;;;;;;;11.56;100.00;99689.94;5087710;28;20077;-79
2024/03/19 09:21:21;;;;;;;16.15;9.43;;;;;;;11.56;100.00;99719.31;5087013;28;20067;-79
2024/03/19 09:23:47;;;;;;;13.02;8.63;;;;;;;11.95;100.00;99700.97;5087182;28;20413;-86
2024/03/19 09:26:12;;;;;;;15.20;10.00;;;;;;;11.56;100.00;99673.13;5068125;28;20109;-79
2024/03/19 09:28:38;;;;;;;15.82;10.25;;;;;;;11.43;100.00;99708.91;5086717;28;20054;-80
2024/03/19 09:31:03;;;;;;;14.50;9.20;;;;;;;11.60;100.00;99693.78;5086628;28;20102;-79
2024/03/19 09:33:29;;;;;;;14.63;8.88;;;;;;;11.65;100.00;99699.22;5086558;28;20145;-79
2024/03/19 09:35:55;;;;;;;15.35;11.30;;;;;;;11.64;100.00;99692.25;5086183;28;20044;-79
2024/03/19 09:38:21;;;;;;;15.50;10.43;;;;;;;11.53;100.00;99663.72;5086613;28;20032;-80
2024/03/19 09:40:52;;;;;;;17.05;10.93;;;;;;;11.91;100.00;99691.78;5086774;28;20042;-80
2024/03/19 09:43:23;;;;;;;36.25;25.92;;;;;;;11.89;100.00;99652.97;5086308;28;20501;-79
2024/03/19 09:45:49;;;;;;;14.95;10.75;;;;;;;12.14;100.00;99684.75;5068176;28;20035;-79
2024/03/19 09:48:15;;;;;;;15.48;9.50;;;;;;;12.38;100.00;99701.47;5085889;28;20024;-79
2024/03/19 09:50:43;;;;;;;14.43;9.30;;;;;;;11.82;100.00;99655.75;5086665;28;20044;-79
2024/03/19 09:53:17;;;;;;;14.80;9.57;;;;;;;11.83;100.00;99702.81;5086466;28;20034;-80
2024/03/19 09:55:45;;;;;;;17.63;10.20;;;;;;;11.90;100.00;99697.38;5086428;28;20093;-79
2024/03/19 09:58:11;;;;;;;18.75;11.68;;;;;;;12.00;100.00;99703.72;5086050;28;20044;-78
2024/03/19 10:00:38;;;;;;;17.27;9.82;;;;;;;11.91;100.00;99697.13;5086481;28;20128;-79
2024/03/19 10:03:03;;;;;;;15.75;9.82;;;;;;;11.75;100.00;99681.78;5086423;28;20700;-80
2024/03/19 10:05:29;;;;;;;15.13;10.15;;;;;;;11.82;100.00;99695.84;5089894;28;20489;-78
2024/03/19 10:07:54;;;;;;;16.13;9.75;;;;;;;11.64;100.00;99657.53;5090557;28;20042;-79
2024/03/19 10:10:20;;;;;;;16.63;9.82;;;;;;;11.81;100.00;99702.22;5090613;28;20043;-79
2024/03/19 10:12:46;;;;;;;18.35;11.05;;;;;;;12.12;100.00;99684.97;5090226;28;20036;-79
2024/03/19 10:15:20;;;;;;;16.88;10.35;;;;;;;12.33;100.00;99690.69;5090399;28;20117;-79
2024/03/19 10:17:47;;;;;;;18.27;12.05;;;;;;;12.74;100.00;99646.72;5084420;28;20085;-79
2024/03/19 10:20:14;;;;;;;15.75;10.07;;;;;;;12.62;100.00;99678.09;5090067;28;20417;-79
2024/03/19 10:22:40;;;;;;;16.65;10.93;;;;;;;12.21;100.00;99696.09;5090302;28;20032;-79
2024/03/19 10:25:06;;;;;;;17.67;10.88;;;;;;;12.38;100.00;99688.94;5090308;28;20043;-79
2024/03/19 10:27:31;;;;;;;16.80;11.63;;;;;;;12.79;100.00;99692.31;5071655;28;20020;-79
2024/03/19 10:29:57;;;;;;;15.07;9.93;;;;;;;12.41;100.00;99680.41;5090100;28;20040;-79
2024/03/19 10:32:23;;;;;;;17.10;10.15;;;;;;;12.46;100.00;99677.84;5089266;28;20410;-79
2024/03/19 10:34:50;;;;;;;18.02;11.00;;;;;;;12.17;100.00;99669.00;5079584;28;20035;-80
2024/03/19 10:37:20;;;;;;;15.80;10.40;;;;;;;12.01;100.00;99643.88;5078111;28;20032;-80
2024/03/19 10:39:47;;;;;;;16.48;10.75;;;;;;;12.34;100.00;99674.44;5089703;28;20070;-80
2024/03/19 10:42:13;;;;;;;17.30;11.00;;;;;;;12.49;100.00;99681.91;5089128;28;20016;-80
2024/03/19 10:44:40;;;;;;;18.10;10.43;;;;;;;12.21;100.00;99685.41;5089391;28;20089;-79
2024/03/19 10:47:05;;;;;;;15.82;10.07;;;;;;;12.09;100.00;99682.75;5076676;28;20150;-79
2024/03/19 10:49:32;;;;;;;15.68;9.68;;;;;;;12.25;100.00;99670.50;5079892;28;20039;-78
2024/03/19 10:52:20;;;;;;;13.85;9.15;;;;;;;12.54;100.00;99689.19;5088301;28;20024;-78
2024/03/19 10:54:47;;;;;;;14.77;9.43;;;;;;;12.27;100.00;99685.25;5087852;28;20077;-79
2024/03/19 10:57:18;;;;;;;13.27;8.27;;;;;;;12.26;100.00;99682.84;5089045;28;20078;-80
2024/03/19 10:59:44;;;;;;;13.20;8.15;;;;;;;13.17;100.00;99687.28;5089375;28;20035;-79
2024/03/19 11:02:18;;;;;;;13.02;9.48;;;;;;;13.01;100.00;99672.84;5089244;28;20064;-80
2024/03/19 11:04:44;;;;;;;13.20;8.40;;;;;;;12.96;100.00;99667.44;5089704;28;20092;-80
2024/03/19 11:07:23;;;;;;;14.02;8.65;;;;;;;12.86;100.00;99679.56;5070849;28;20036;-79
2024/03/19 11:09:53;;;;;;;16.38;8.43;;;;;;;12.99;100.00;99681.09;5089665;28;20035;-80
2024/03/19 11:12:23;;;;;;;11.82;8.05;;;;;;;12.82;100.00;99656.22;5089355;28;20028;-79
2024/03/19 11:14:56;;;;;;;15.52;8.50;;;;;;;13.35;100.00;99659.44;5070793;28;20032;-79
2024/03/19 11:17:28;;;;;;;14.85;8.80;;;;;;;13.25;100.00;99681.50;5088816;28;20491;-80